Time;durP1;ratioP1;P1;durP2;ratioP2;P2;SDS_P1;SDS_P2;PMS_P1;PMS_P2;Temp;Humidity;BMP_temperature;BMP_pressure;BME280_temperature;BME280_humidity;BME280_pressure;Samples;Min_cycle;Max_cycle;Signal;HPM_P1;HPM_P2
2022/09/24 00:01:37;;;;;;;5.53;1.30;;;19.40;99.90;;;;;;4980637;28;20208;-66
2022/09/24 00:04:08;;;;;;;2.83;1.23;;;19.40;99.90;;;;;;5009310;28;20185;-65
2022/09/24 00:06:43;;;;;;;8.20;1.60;;;19.40;99.90;;;;;;5000900;28;20186;-65
2022/09/24 00:09:16;;;;;;;4.70;1.43;;;19.50;99.90;;;;;;5006232;28;20312;-65
2022/09/24 00:11:44;;;;;;;4.53;1.30;;;19.50;99.90;;;;;;4991015;28;20639;-65
2022/09/24 00:14:11;;;;;;;5.03;1.10;;;19.50;99.90;;;;;;5004614;28;20678;-65
2022/09/24 00:16:40;;;;;;;6.30;1.23;;;19.50;99.90;;;;;;5003134;28;20551;-65
2022/09/24 00:19:06;;;;;;;4.97;1.10;;;19.60;99.90;;;;;;4987052;28;20232;-66
2022/09/24 00:21:35;;;;;;;5.87;1.27;;;19.60;99.90;;;;;;5009755;28;20208;-65
2022/09/24 00:26:48;;;;;;;5.40;1.33;;;19.50;99.90;;;;;;5011669;28;20263;-66
2022/09/24 00:26:57;;;;;;;3.53;0.73;;;19.50;99.90;;;;;;5011675;28;20207;-65
2022/09/24 00:29:25;;;;;;;6.07;1.10;;;19.50;99.90;;;;;;5008437;28;20193;-65
2022/09/24 00:31:52;;;;;;;5.23;1.10;;;19.50;99.90;;;;;;5000656;28;20749;-65
2022/09/24 00:34:20;;;;;;;4.87;1.23;;;19.50;99.90;;;;;;4998797;28;20631;-65
2022/09/24 00:36:47;;;;;;;5.77;1.33;;;19.40;99.90;;;;;;4982108;28;20192;-64
2022/09/24 00:39:15;;;;;;;6.10;1.20;;;19.40;99.90;;;;;;4991750;28;20647;-66
2022/09/24 00:41:48;;;;;;;5.13;1.60;;;19.40;99.90;;;;;;5003044;28;20283;-66
2022/09/24 00:44:43;;;;;;;4.10;1.30;;;19.30;99.90;;;;;;5012008;28;20251;-66
2022/09/24 00:47:39;;;;;;;7.43;1.50;;;19.30;99.90;;;;;;4989808;28;20201;-66
2022/09/24 00:50:35;;;;;;;3.70;1.20;;;19.20;99.90;;;;;;5013114;28;20197;-66
2022/09/24 00:53:18;;;;;;;4.93;1.07;;;19.20;99.90;;;;;;4979691;28;20211;-66
2022/09/24 00:55:53;;;;;;;3.93;1.20;;;19.20;99.90;;;;;;5004616;28;20192;-66
2022/09/24 00:58:21;;;;;;;7.80;1.53;;;19.20;99.90;;;;;;5008915;28;20192;-66
2022/09/24 01:00:53;;;;;;;7.43;1.60;;;19.30;99.90;;;;;;5007263;28;20193;-66
2022/09/24 01:03:24;;;;;;;5.13;1.30;;;19.30;99.90;;;;;;5000240;28;20948;-66
2022/09/24 01:05:51;;;;;;;5.87;1.40;;;19.30;99.90;;;;;;4990906;28;20200;-65
2022/09/24 01:08:19;;;;;;;6.80;1.23;;;19.20;99.90;;;;;;5004033;28;20181;-66
2022/09/24 01:11:48;;;;;;;5.50;1.40;;;19.20;99.90;;;;;;5002516;28;20196;-66
2022/09/24 01:14:50;;;;;;;3.67;1.20;;;19.20;99.90;;;;;;4929555;29;20212;-66
2022/09/24 01:18:02;;;;;;;7.87;1.63;;;19.20;99.90;;;;;;4931560;29;20183;-66
2022/09/24 01:21:07;;;;;;;5.30;1.40;;;19.10;99.90;;;;;;5008989;28;20287;-66
2022/09/24 01:23:53;;;;;;;7.03;1.83;;;18.90;99.90;;;;;;5010640;28;20264;-65
2022/09/24 01:26:55;;;;;;;3.70;1.40;;;18.90;99.90;;;;;;5000072;28;20190;-66
2022/09/24 01:29:42;;;;;;;2.83;1.10;;;18.90;99.90;;;;;;4991785;28;20212;-66
2022/09/24 01:32:23;;;;;;;4.20;1.27;;;18.80;99.90;;;;;;5003240;28;20183;-66
2022/09/24 01:35:00;;;;;;;4.37;1.40;;;18.80;99.90;;;;;;5002340;28;20197;-66
2022/09/24 01:37:33;;;;;;;5.80;1.30;;;18.80;99.90;;;;;;5009157;28;20216;-65
2022/09/24 01:40:03;;;;;;;3.17;1.13;;;18.70;99.90;;;;;;5007314;28;20197;-66
2022/09/24 01:42:32;;;;;;;3.37;1.27;;;18.50;99.90;;;;;;5013749;28;20232;-66
2022/09/24 01:45:01;;;;;;;3.20;1.23;;;18.50;99.90;;;;;;5012922;28;20176;-66
2022/09/24 01:47:38;;;;;;;3.77;1.33;;;18.60;99.90;;;;;;5030868;28;20184;-66
2022/09/24 01:50:11;;;;;;;9.57;1.57;;;18.30;99.90;;;;;;5031289;28;20214;-66
2022/09/24 01:52:54;;;;;;;5.07;1.30;;;18.20;99.90;;;;;;5017826;28;20239;-66
2022/09/24 01:55:27;;;;;;;5.87;1.40;;;18.30;99.90;;;;;;5010578;28;20180;-65
2022/09/24 01:58:07;;;;;;;7.20;1.60;;;18.40;99.90;;;;;;5010461;28;20188;-66
2022/09/24 02:00:41;;;;;;;6.80;1.67;;;18.50;99.90;;;;;;5010532;28;20181;-66
2022/09/24 02:03:33;;;;;;;4.30;1.40;;;18.50;99.90;;;;;;5010573;28;20209;-66
2022/09/24 02:06:19;;;;;;;6.67;1.40;;;18.60;99.90;;;;;;5003457;28;20179;-66
2022/09/24 02:08:48;;;;;;;3.93;1.37;;;18.50;99.90;;;;;;4994413;28;20503;-66
2022/09/24 02:11:23;;;;;;;3.33;1.30;;;18.30;99.90;;;;;;5001200;28;20271;-66
2022/09/24 02:14:13;;;;;;;5.50;1.40;;;18.50;99.90;;;;;;5010791;28;20732;-66
2022/09/24 02:16:48;;;;;;;4.47;1.37;;;18.40;99.90;;;;;;5011058;28;20639;-66
2022/09/24 02:19:24;;;;;;;4.60;1.30;;;18.40;99.90;;;;;;5010804;28;20249;-66
2022/09/24 02:21:51;;;;;;;7.30;1.67;;;18.40;99.90;;;;;;5010898;28;20215;-65
2022/09/24 02:24:33;;;;;;;5.13;1.33;;;18.10;99.90;;;;;;4930061;28;2051065;-66
2022/09/24 02:27:00;;;;;;;4.20;1.50;;;18.10;99.90;;;;;;5010226;28;20193;-66
2022/09/24 02:29:26;;;;;;;4.33;1.50;;;18.00;99.90;;;;;;5011130;28;20641;-66
2022/09/24 02:31:56;;;;;;;6.80;1.50;;;18.10;99.90;;;;;;5011655;28;20184;-66
2022/09/24 02:34:36;;;;;;;4.00;1.20;;;18.10;99.90;;;;;;5007628;28;20638;-66
2022/09/24 02:37:11;;;;;;;5.13;1.30;;;18.10;99.90;;;;;;4973175;28;20189;-66
2022/09/24 02:39:38;;;;;;;4.30;1.27;;;18.20;99.90;;;;;;5006701;28;20618;-66
2022/09/24 02:42:07;;;;;;;5.13;1.50;;;18.40;99.90;;;;;;5009904;28;20682;-66
2022/09/24 02:44:37;;;;;;;5.30;1.57;;;18.40;99.90;;;;;;5010971;28;20177;-66
2022/09/24 02:47:06;;;;;;;4.30;1.33;;;18.50;99.90;;;;;;4993671;28;20196;-65
2022/09/24 02:49:33;;;;;;;7.03;1.60;;;18.40;99.90;;;;;;5009251;28;20187;-66
2022/09/24 02:51:59;;;;;;;4.70;1.53;;;18.50;99.90;;;;;;5009387;28;20196;-65
2022/09/24 02:54:25;;;;;;;4.17;1.20;;;18.50;99.90;;;;;;5008396;28;20203;-66
2022/09/24 02:56:52;;;;;;;5.80;1.40;;;18.50;99.90;;;;;;5010775;28;20239;-66
2022/09/24 02:59:19;;;;;;;6.17;1.40;;;18.50;99.90;;;;;;5010800;28;20230;-66
2022/09/24 03:01:46;;;;;;;6.90;1.60;;;18.60;99.90;;;;;;5009380;28;20216;-66
2022/09/24 03:04:13;;;;;;;9.50;2.00;;;18.60;99.90;;;;;;5008984;28;20177;-66
2022/09/24 03:06:40;;;;;;;5.17;1.40;;;18.60;99.90;;;;;;4992659;28;20279;-66
2022/09/24 03:09:06;;;;;;;5.33;1.50;;;18.60;99.90;;;;;;5008954;28;20253;-65
2022/09/24 03:11:34;;;;;;;7.90;1.70;;;18.60;99.90;;;;;;4991963;28;20189;-66
2022/09/24 03:14:00;;;;;;;6.43;1.60;;;18.70;99.90;;;;;;4992133;28;20192;-66
2022/09/24 03:16:27;;;;;;;7.93;1.70;;;18.70;99.90;;;;;;5010749;28;20212;-66
2022/09/24 03:18:53;;;;;;;4.73;1.33;;;18.70;99.90;;;;;;5010075;28;20189;-66
2022/09/24 03:21:21;;;;;;;6.13;1.60;;;18.80;99.90;;;;;;5009424;28;20195;-66
2022/09/24 03:23:48;;;;;;;4.70;1.60;;;18.80;99.90;;;;;;5015966;28;20193;-67
2022/09/24 03:26:16;;;;;;;5.63;1.70;;;18.90;99.90;;;;;;4993061;28;20533;-65
2022/09/24 03:28:44;;;;;;;8.43;1.67;;;18.90;99.90;;;;;;5002990;28;20185;-66
2022/09/24 03:31:11;;;;;;;6.13;1.90;;;18.90;99.90;;;;;;5010704;28;20862;-66
2022/09/24 03:33:48;;;;;;;5.40;1.47;;;19.00;99.90;;;;;;5009454;28;20825;-66
2022/09/24 03:36:23;;;;;;;4.10;1.20;;;19.00;99.90;;;;;;5016987;28;20196;-66
2022/09/24 03:38:54;;;;;;;6.23;1.27;;;19.00;99.90;;;;;;5004108;28;20221;-65
2022/09/24 03:41:21;;;;;;;9.23;1.60;;;19.00;99.90;;;;;;5010006;28;20215;-65
2022/09/24 03:43:47;;;;;;;4.40;1.47;;;19.00;99.90;;;;;;4994155;28;20247;-66
2022/09/24 03:46:15;;;;;;;7.00;1.47;;;19.00;99.90;;;;;;4993658;28;20296;-66
2022/09/24 03:48:46;;;;;;;7.03;1.70;;;19.00;99.90;;;;;;4992873;28;20204;-66
2022/09/24 03:51:17;;;;;;;6.23;1.80;;;19.00;99.90;;;;;;5010516;28;20182;-66
2022/09/24 03:53:45;;;;;;;3.57;1.30;;;19.00;99.90;;;;;;5010248;28;20187;-66
2022/09/24 03:56:12;;;;;;;4.90;1.50;;;19.00;99.90;;;;;;5008926;28;20196;-66
2022/09/24 03:58:40;;;;;;;6.27;1.60;;;19.00;99.90;;;;;;5010099;28;20177;-66
2022/09/24 04:01:09;;;;;;;6.03;1.67;;;19.10;99.90;;;;;;5019765;28;20196;-66
2022/09/24 04:03:36;;;;;;;7.93;1.83;;;19.20;99.90;;;;;;5017033;28;20196;-66
2022/09/24 04:06:04;;;;;;;6.00;1.60;;;19.20;99.90;;;;;;5010447;28;20345;-66
2022/09/24 04:08:31;;;;;;;8.40;1.77;;;19.20;99.90;;;;;;5005006;28;20220;-66
2022/09/24 04:10:58;;;;;;;6.13;1.80;;;19.30;99.90;;;;;;4988914;28;20201;-66
2022/09/24 04:13:25;;;;;;;5.83;1.60;;;19.30;99.90;;;;;;5006248;28;20182;-66
2022/09/24 04:15:52;;;;;;;5.67;1.60;;;19.30;99.90;;;;;;5009999;28;20729;-66
2022/09/24 04:18:18;;;;;;;5.93;1.70;;;19.30;99.90;;;;;;5010212;28;20255;-66
2022/09/24 04:20:45;;;;;;;5.57;1.60;;;19.30;99.90;;;;;;5009075;28;20279;-66
2022/09/24 04:23:13;;;;;;;7.37;1.80;;;19.30;99.90;;;;;;5004936;28;20212;-66
2022/09/24 04:25:39;;;;;;;5.70;1.43;;;19.40;99.90;;;;;;4991069;28;20192;-66
2022/09/24 04:28:08;;;;;;;7.83;1.60;;;19.40;99.90;;;;;;5007458;28;20231;-66
2022/09/24 04:30:37;;;;;;;6.47;1.63;;;19.40;99.90;;;;;;5000499;28;20209;-66
2022/09/24 04:33:04;;;;;;;3.13;1.40;;;19.50;99.90;;;;;;5005997;28;20673;-66
2022/09/24 04:35:34;;;;;;;8.50;1.77;;;19.50;99.90;;;;;;5008986;28;20193;-65
2022/09/24 04:38:02;;;;;;;8.63;2.13;;;19.50;99.90;;;;;;5002468;28;20591;-66
2022/09/24 04:40:29;;;;;;;7.70;1.63;;;19.50;99.90;;;;;;4999551;28;20982;-66
2022/09/24 04:42:56;;;;;;;6.43;1.60;;;19.60;99.90;;;;;;5009272;28;20208;-65
2022/09/24 04:45:23;;;;;;;7.33;1.70;;;19.50;99.90;;;;;;5007778;28;20193;-65
2022/09/24 04:47:56;;;;;;;6.80;1.50;;;19.60;99.90;;;;;;4997943;28;20193;-66
2022/09/24 04:50:27;;;;;;;7.93;2.03;;;19.50;99.90;;;;;;5006582;28;20197;-66
2022/09/24 04:52:55;;;;;;;5.40;1.60;;;19.50;99.90;;;;;;5016798;28;20939;-66
2022/09/24 04:55:24;;;;;;;5.27;1.60;;;19.50;99.90;;;;;;5015751;28;20204;-66
2022/09/24 04:57:51;;;;;;;6.57;1.63;;;19.50;99.90;;;;;;5008469;28;20204;-66
2022/09/24 05:00:20;;;;;;;3.53;1.60;;;19.60;99.90;;;;;;5016528;28;20185;-66
2022/09/24 05:02:47;;;;;;;3.30;1.60;;;19.70;99.90;;;;;;4971039;28;20714;-66
2022/09/24 05:05:13;;;;;;;7.20;1.93;;;19.70;99.90;;;;;;5007668;28;20190;-66
2022/09/24 05:07:43;;;;;;;3.70;1.43;;;19.70;99.90;;;;;;4995892;28;20173;-66
2022/09/24 05:10:09;;;;;;;7.97;1.43;;;19.80;99.90;;;;;;5008144;28;20192;-66
2022/09/24 05:12:35;;;;;;;8.90;1.50;;;19.90;99.90;;;;;;4984522;28;20202;-66
2022/09/24 05:15:03;;;;;;;5.43;1.57;;;19.90;99.90;;;;;;4995631;28;20212;-66
2022/09/24 05:17:30;;;;;;;7.50;1.60;;;20.00;99.90;;;;;;5012398;28;20264;-66
2022/09/24 05:19:58;;;;;;;11.30;1.90;;;20.00;99.90;;;;;;5022588;28;20196;-66
2022/09/24 05:22:27;;;;;;;6.03;1.50;;;20.00;99.90;;;;;;5012800;28;20205;-66
2022/09/24 05:24:53;;;;;;;6.07;1.50;;;20.00;99.90;;;;;;5003511;28;20662;-66
2022/09/24 05:27:21;;;;;;;7.13;1.53;;;20.10;99.90;;;;;;5012754;28;20192;-66
2022/09/24 05:29:49;;;;;;;10.20;1.67;;;20.10;99.90;;;;;;5010480;28;20239;-66
2022/09/24 05:32:19;;;;;;;10.53;1.90;;;20.20;99.90;;;;;;5012590;28;20192;-66
2022/09/24 05:34:46;;;;;;;12.87;1.60;;;20.30;99.90;;;;;;5020528;28;20204;-66
2022/09/24 05:37:14;;;;;;;13.93;2.70;;;20.30;99.90;;;;;;4978732;28;20188;-66
2022/09/24 05:39:41;;;;;;;6.23;1.50;;;20.40;99.90;;;;;;5011084;28;20223;-65
2022/09/24 05:42:13;;;;;;;4.03;1.37;;;20.40;99.90;;;;;;5004924;28;20803;-66
2022/09/24 05:44:40;;;;;;;3.30;1.40;;;20.40;99.90;;;;;;5012035;28;20231;-66
2022/09/24 05:47:06;;;;;;;7.30;1.73;;;20.50;99.90;;;;;;4991663;28;20240;-65
2022/09/24 05:49:32;;;;;;;4.33;1.30;;;20.50;99.90;;;;;;4997925;28;20268;-66
2022/09/24 05:52:02;;;;;;;4.60;1.50;;;20.60;99.90;;;;;;5010879;28;20185;-65
2022/09/24 05:54:30;;;;;;;9.00;1.67;;;20.60;99.90;;;;;;5012566;28;20185;-66
2022/09/24 05:56:56;;;;;;;8.37;1.70;;;20.70;99.90;;;;;;5010985;28;20185;-66
2022/09/24 05:59:23;;;;;;;6.10;1.80;;;20.70;99.90;;;;;;5008819;28;20239;-66
2022/09/24 06:01:50;;;;;;;6.63;1.50;;;20.70;99.90;;;;;;5010195;28;20236;-66
2022/09/24 06:04:17;;;;;;;6.53;1.53;;;20.70;99.90;;;;;;5002442;28;20562;-66
2022/09/24 06:06:44;;;;;;;9.77;1.80;;;20.80;99.90;;;;;;5012093;28;20181;-66
2022/09/24 06:09:10;;;;;;;7.67;1.50;;;20.80;99.90;;;;;;4994108;28;20240;-66
2022/09/24 06:11:37;;;;;;;9.67;1.63;;;20.90;99.90;;;;;;5005670;28;20279;-66
2022/09/24 06:14:04;;;;;;;8.73;2.17;;;21.00;99.90;;;;;;4990380;28;20738;-65
2022/09/24 06:16:34;;;;;;;11.03;1.77;;;21.10;99.90;;;;;;5010306;28;20781;-66
2022/09/24 06:19:00;;;;;;;4.87;1.30;;;21.20;99.90;;;;;;5011084;28;20181;-66
2022/09/24 06:21:27;;;;;;;3.63;1.30;;;21.30;99.90;;;;;;4992776;28;20189;-66
2022/09/24 06:23:53;;;;;;;3.47;1.40;;;21.30;99.90;;;;;;5010184;28;20188;-67
2022/09/24 06:26:19;;;;;;;5.77;1.40;;;21.30;99.90;;;;;;5012377;28;20266;-66
2022/09/24 06:28:46;;;;;;;5.68;1.52;;;21.40;99.90;;;;;;5011323;28;20189;-66
2022/09/24 06:31:12;;;;;;;3.85;1.38;;;21.40;99.90;;;;;;5007771;28;20574;-66
2022/09/24 06:33:39;;;;;;;3.30;1.33;;;21.40;99.90;;;;;;5009380;28;20233;-66
2022/09/24 06:36:06;;;;;;;2.37;1.43;;;21.40;99.90;;;;;;5011640;28;20192;-66
2022/09/24 06:38:32;;;;;;;2.63;0.87;;;21.40;99.90;;;;;;5011250;28;20213;-66
2022/09/24 06:41:02;;;;;;;9.00;1.30;;;21.30;99.90;;;;;;5009942;28;20189;-66
2022/09/24 06:43:29;;;;;;;6.70;1.40;;;21.30;99.90;;;;;;5003118;28;20212;-66
2022/09/24 06:45:57;;;;;;;6.38;1.33;;;21.30;99.90;;;;;;5007833;28;20185;-66
2022/09/24 06:48:25;;;;;;;7.23;1.40;;;21.40;99.90;;;;;;5010606;28;20594;-66
2022/09/24 06:50:53;;;;;;;3.97;1.20;;;21.40;99.90;;;;;;5008831;28;20200;-65
2022/09/24 06:53:20;;;;;;;4.83;1.40;;;21.50;99.90;;;;;;5007737;28;20208;-66
2022/09/24 06:55:46;;;;;;;6.05;1.30;;;21.60;99.90;;;;;;5010862;28;20200;-66
2022/09/24 06:58:19;;;;;;;6.75;1.33;;;21.60;99.90;;;;;;5010331;28;20181;-66
2022/09/24 07:00:57;;;;;;;3.78;1.10;;;21.70;99.90;;;;;;5006509;28;20771;-66
2022/09/24 07:03:27;;;;;;;5.30;1.43;;;21.80;99.90;;;;;;5008728;28;20243;-66
2022/09/24 07:05:54;;;;;;;6.85;1.27;;;21.80;99.90;;;;;;5010468;28;20240;-66
2022/09/24 07:08:21;;;;;;;7.32;1.50;;;21.90;99.90;;;;;;5004999;28;20810;-66
2022/09/24 07:10:51;;;;;;;6.23;1.40;;;21.90;99.90;;;;;;5016762;28;20280;-65
2022/09/24 07:13:20;;;;;;;5.32;1.23;;;22.00;99.90;;;;;;5007822;28;20255;-66
2022/09/24 07:15:49;;;;;;;7.88;1.63;;;22.00;99.90;;;;;;5006645;28;20193;-65
2022/09/24 07:18:16;;;;;;;7.00;1.70;;;22.20;99.90;;;;;;5009976;28;20327;-65
2022/09/24 07:20:42;;;;;;;8.70;1.50;;;22.30;99.90;;;;;;4984832;28;20185;-66
2022/09/24 07:23:13;;;;;;;8.88;1.45;;;22.30;99.90;;;;;;5010346;28;20212;-66
2022/09/24 07:25:40;;;;;;;8.13;1.55;;;22.30;99.90;;;;;;5008737;28;20201;-65
2022/09/24 07:28:10;;;;;;;5.83;1.30;;;22.30;99.90;;;;;;4999040;28;20208;-66
2022/09/24 07:30:38;;;;;;;8.57;1.50;;;22.30;99.90;;;;;;4995303;28;20257;-66
2022/09/24 07:33:06;;;;;;;9.38;1.58;;;22.30;99.90;;;;;;5008785;28;20246;-66
2022/09/24 07:35:33;;;;;;;5.90;1.50;;;22.30;99.90;;;;;;5010413;28;20188;-66
2022/09/24 07:38:13;;;;;;;7.25;1.27;;;22.50;99.90;;;;;;5020893;28;20196;-66
2022/09/24 07:40:39;;;;;;;10.50;1.92;;;22.70;99.90;;;;;;5006658;28;20188;-66
2022/09/24 07:43:11;;;;;;;3.30;1.20;;;22.70;99.90;;;;;;5008872;28;20239;-66
2022/09/24 07:45:37;;;;;;;9.20;1.60;;;22.50;99.90;;;;;;5003369;28;20201;-66
2022/09/24 07:48:07;;;;;;;7.30;1.77;;;22.40;99.90;;;;;;5010019;28;20608;-66
2022/09/24 07:50:39;;;;;;;7.43;1.35;;;22.40;99.90;;;;;;5005146;28;20197;-66
2022/09/24 07:53:05;;;;;;;6.63;1.55;;;22.50;99.90;;;;;;5004545;28;20579;-66
2022/09/24 07:55:38;;;;;;;8.70;1.40;;;22.70;99.90;;;;;;4996542;28;20732;-65
2022/09/24 07:58:04;;;;;;;6.75;1.80;;;22.80;99.90;;;;;;5011400;28;20580;-66
2022/09/24 08:00:30;;;;;;;6.00;1.55;;;22.90;99.90;;;;;;4982347;28;20204;-66
2022/09/24 08:02:56;;;;;;;8.48;1.63;;;22.90;99.90;;;;;;5008673;28;20296;-66
2022/09/24 08:05:23;;;;;;;6.55;1.60;;;22.90;99.90;;;;;;5010727;28;20211;-66
2022/09/24 08:07:56;;;;;;;4.82;1.40;;;22.90;99.90;;;;;;5012985;28;20192;-66
2022/09/24 08:10:25;;;;;;;4.13;1.38;;;22.80;99.90;;;;;;5001793;28;20185;-65
2022/09/24 08:12:55;;;;;;;6.05;1.52;;;22.60;99.90;;;;;;5005197;28;20215;-66
2022/09/24 08:15:22;;;;;;;7.05;1.60;;;22.80;99.90;;;;;;4991979;28;20272;-66
2022/09/24 08:17:48;;;;;;;7.88;1.40;;;22.90;99.90;;;;;;5006794;28;20189;-66
2022/09/24 08:20:15;;;;;;;5.88;1.48;;;22.90;99.90;;;;;;4997528;28;20185;-66
2022/09/24 08:22:41;;;;;;;5.50;1.60;;;23.00;99.90;;;;;;5004749;28;20263;-66
2022/09/24 08:25:07;;;;;;;6.55;1.60;;;23.10;99.90;;;;;;5009735;28;20197;-66
2022/09/24 08:27:36;;;;;;;6.35;1.52;;;23.20;99.90;;;;;;5013978;28;20198;-66
2022/09/24 08:30:05;;;;;;;6.20;1.80;;;23.20;99.90;;;;;;5014218;28;20203;-66
2022/09/24 08:32:31;;;;;;;3.85;1.17;;;23.20;99.90;;;;;;5010020;28;20191;-66
2022/09/24 08:34:58;;;;;;;4.57;1.58;;;23.10;99.90;;;;;;5025124;28;20185;-66
2022/09/24 08:37:26;;;;;;;7.68;1.63;;;23.20;99.90;;;;;;5008735;28;20218;-66
2022/09/24 08:39:53;;;;;;;5.70;1.42;;;23.40;99.90;;;;;;5010327;28;20186;-66
2022/09/24 08:42:38;;;;;;;3.97;1.48;;;23.40;99.90;;;;;;5001686;28;20267;-66
2022/09/24 08:48:19;;;;;;;7.25;1.40;;;23.60;99.90;;;;;;5002611;28;20181;-67
2022/09/24 08:50:59;;;;;;;6.35;1.55;;;23.70;99.90;;;;;;4996655;28;20205;-65
2022/09/24 08:53:57;;;;;;;3.88;1.30;;;23.70;99.90;;;;;;4989361;28;20186;-67
2022/09/24 08:56:30;;;;;;;7.22;1.67;;;23.70;99.90;;;;;;4991377;28;20223;-67
2022/09/24 08:59:11;;;;;;;5.03;1.40;;;23.80;99.90;;;;;;5010562;28;20903;-67
2022/09/24 09:01:54;;;;;;;3.85;1.35;;;23.80;99.90;;;;;;4995068;28;20216;-67
2022/09/24 09:04:20;;;;;;;6.15;1.85;;;23.90;99.90;;;;;;5008426;28;20195;-67
2022/09/24 09:07:06;;;;;;;6.18;1.42;;;24.00;99.90;;;;;;5003458;28;20193;-66
2022/09/24 09:10:00;;;;;;;7.07;1.77;;;24.00;99.90;;;;;;5000475;28;20189;-66
2022/09/24 09:12:39;;;;;;;8.73;1.85;;;24.10;99.90;;;;;;4987930;28;20188;-66
2022/09/24 09:15:28;;;;;;;7.95;1.58;;;24.20;99.90;;;;;;5003943;28;20242;-67
2022/09/24 09:18:13;;;;;;;7.82;1.63;;;24.10;99.90;;;;;;5006600;28;20235;-65
2022/09/24 09:20:44;;;;;;;5.60;1.65;;;24.20;99.90;;;;;;5012693;28;20218;-66
2022/09/24 09:23:35;;;;;;;5.30;1.52;;;24.30;99.90;;;;;;4991156;28;20546;-66
2022/09/24 09:26:01;;;;;;;6.47;1.67;;;24.60;99.90;;;;;;4993914;28;20285;-66
2022/09/24 09:28:28;;;;;;;5.90;1.20;;;24.90;99.90;;;;;;5010217;28;20315;-65
2022/09/24 09:31:44;;;;;;;5.82;1.50;;;25.50;99.90;;;;;;5010074;28;20325;-66
2022/09/24 09:34:30;;;;;;;9.85;1.85;;;25.70;99.90;;;;;;5004647;28;20197;-66
2022/09/24 09:37:07;;;;;;;7.18;1.67;;;26.00;99.90;;;;;;5005584;28;20188;-66
2022/09/24 09:39:41;;;;;;;4.95;1.20;;;25.70;99.90;;;;;;5011338;28;20243;-65
2022/09/24 09:42:30;;;;;;;4.63;1.58;;;25.70;99.90;;;;;;4990559;28;20212;-66
2022/09/24 09:45:01;;;;;;;3.30;1.30;;;25.90;99.90;;;;;;5001017;28;20818;-66
2022/09/24 09:47:45;;;;;;;1.77;1.08;;;25.90;99.90;;;;;;4993866;28;20200;-66
2022/09/24 09:50:27;;;;;;;2.75;1.20;;;26.30;99.90;;;;;;5006209;28;20594;-63
2022/09/24 09:52:54;;;;;;;4.05;1.30;;;27.60;99.90;;;;;;5000013;28;20188;-64
2022/09/24 09:55:34;;;;;;;2.67;1.10;;;27.20;99.90;;;;;;5003442;28;20436;-64
2022/09/24 09:58:30;;;;;;;7.75;1.33;;;27.10;99.90;;;;;;5010542;28;20185;-64
2022/09/24 10:01:13;;;;;;;4.43;1.15;;;26.90;99.90;;;;;;4993887;28;20196;-64
2022/09/24 10:03:49;;;;;;;2.47;1.10;;;26.80;99.90;;;;;;5003168;28;20213;-64
2022/09/24 10:06:31;;;;;;;8.40;1.65;;;26.60;99.90;;;;;;4990064;28;20177;-64
2022/09/24 10:09:19;;;;;;;2.67;1.42;;;26.60;99.90;;;;;;5007165;28;20184;-64
2022/09/24 10:11:47;;;;;;;4.68;1.20;;;26.60;99.90;;;;;;5012175;28;20215;-63
2022/09/24 10:14:18;;;;;;;5.70;1.30;;;26.40;99.90;;;;;;5009568;28;20177;-64
2022/09/24 10:16:56;;;;;;;2.72;1.13;;;26.80;99.90;;;;;;5004670;28;20189;-64
2022/09/24 10:19:26;;;;;;;4.30;1.38;;;27.20;99.90;;;;;;5012885;28;20196;-64
2022/09/24 10:21:58;;;;;;;2.75;1.10;;;27.40;99.90;;;;;;4975241;28;20298;-64
2022/09/24 10:24:28;;;;;;;4.10;1.35;;;28.40;99.90;;;;;;5010210;28;20196;-64
2022/09/24 10:26:55;;;;;;;4.78;1.20;;;28.40;99.90;;;;;;5013477;28;20184;-64
2022/09/24 10:32:25;;;;;;;2.05;1.10;;;27.40;99.60;;;;;;4992614;28;20181;-64
2022/09/24 10:35:20;;;;;;;3.20;1.10;;;26.80;99.80;;;;;;5008584;28;20188;-64
2022/09/24 10:37:57;;;;;;;2.08;0.80;;;26.70;99.90;;;;;;4996634;28;20895;-66
2022/09/24 10:40:30;;;;;;;5.18;1.45;;;26.80;99.60;;;;;;5010495;28;20271;-65
2022/09/24 10:43:04;;;;;;;3.72;1.08;;;27.00;98.30;;;;;;5009315;28;20602;-65
2022/09/24 10:46:37;;;;;;;7.10;1.30;;;29.20;97.40;;;;;;5010984;28;20176;-65
2022/09/24 10:49:38;;;;;;;5.03;1.00;;;28.20;97.50;;;;;;4978357;28;20229;-65
2022/09/24 10:52:41;;;;;;;3.33;1.10;;;27.00;96.80;;;;;;4986805;28;20197;-64
2022/09/24 10:55:38;;;;;;;3.00;1.02;;;26.50;96.10;;;;;;4974292;28;20204;-65
2022/09/24 10:58:56;;;;;;;5.93;1.10;;;26.40;97.50;;;;;;5005794;28;20216;-65
2022/09/24 11:01:28;;;;;;;2.42;0.90;;;26.20;96.80;;;;;;4990001;28;20251;-65
2022/09/24 11:04:18;;;;;;;2.70;1.10;;;26.00;95.50;;;;;;5005599;28;20611;-65
2022/09/24 11:07:12;;;;;;;2.35;0.90;;;26.10;94.70;;;;;;4979103;28;20279;-65
2022/09/24 11:10:22;;;;;;;3.10;1.10;;;26.00;94.40;;;;;;5009902;28;20188;-65
2022/09/24 11:13:30;;;;;;;4.22;1.08;;;25.90;94.50;;;;;;5005557;28;20188;-65
2022/09/24 11:16:46;;;;;;;2.58;1.00;;;26.10;95.10;;;;;;5003026;28;20193;-65
2022/09/24 11:19:51;;;;;;;2.72;0.93;;;26.00;95.00;;;;;;4997464;28;20197;-65
2022/09/24 11:22:42;;;;;;;3.63;1.00;;;26.00;93.70;;;;;;5004380;28;20912;-65
2022/09/24 11:25:51;;;;;;;4.13;1.13;;;26.00;94.60;;;;;;5010169;28;20251;-66
2022/09/24 11:28:39;;;;;;;1.15;0.70;;;26.00;94.30;;;;;;4962050;28;20189;-65
2022/09/24 11:31:14;;;;;;;2.70;1.00;;;26.00;92.70;;;;;;5005758;28;20191;-65
2022/09/24 11:34:23;;;;;;;4.75;1.13;;;26.10;93.70;;;;;;5005602;28;20601;-65
2022/09/24 11:37:22;;;;;;;1.85;0.98;;;26.00;93.60;;;;;;5014402;28;20239;-65
2022/09/24 11:40:28;;;;;;;2.67;1.00;;;26.00;94.60;;;;;;4978835;28;20932;-65
2022/09/24 11:43:34;;;;;;;4.78;1.00;;;26.00;95.50;;;;;;5008927;28;20212;-65
2022/09/24 11:46:11;;;;;;;3.22;1.40;;;25.90;94.70;;;;;;4998674;28;20212;-64
2022/09/24 11:49:17;;;;;;;1.73;0.90;;;26.00;95.00;;;;;;4999254;28;20188;-65
2022/09/24 11:52:19;;;;;;;2.60;1.05;;;26.00;94.10;;;;;;4999955;28;20201;-66
2022/09/24 11:55:05;;;;;;;3.13;0.82;;;26.00;94.00;;;;;;4990279;28;20200;-66
2022/09/24 11:57:50;;;;;;;5.70;1.00;;;25.90;94.30;;;;;;4994911;28;20213;-66
2022/09/24 12:00:19;;;;;;;1.90;0.80;;;25.90;94.00;;;;;;5005814;28;20668;-67
2022/09/24 12:03:07;;;;;;;2.13;1.17;;;25.90;93.50;;;;;;5010231;28;20225;-67
2022/09/24 12:05:56;;;;;;;2.03;0.77;;;25.90;93.30;;;;;;5007843;28;20200;-67
2022/09/24 12:08:37;;;;;;;2.58;0.73;;;25.80;92.50;;;;;;5002529;28;20186;-65
2022/09/24 12:11:40;;;;;;;1.90;1.02;;;25.80;93.00;;;;;;5005571;28;20307;-67
2022/09/24 12:15:09;;;;;;;1.88;0.90;;;25.70;92.70;;;;;;5003409;28;20200;-67
2022/09/24 12:18:06;;;;;;;2.00;0.77;;;25.90;91.80;;;;;;4995096;28;20238;-65
2022/09/24 12:20:55;;;;;;;2.55;1.00;;;25.80;91.40;;;;;;5006825;28;20242;-64
2022/09/24 12:23:28;;;;;;;3.03;0.90;;;25.80;90.20;;;;;;4993723;28;20222;-65
2022/09/24 12:25:58;;;;;;;1.30;0.80;;;25.80;90.10;;;;;;5012734;28;20584;-65
2022/09/24 12:34:41;;;;;;;3.15;0.98;;;25.70;90.10;;;;;;5014609;28;20189;-67
2022/09/24 12:37:16;;;;;;;3.42;1.00;;;25.70;91.30;;;;;;4982047;28;20193;-67
2022/09/24 12:40:15;;;;;;;2.95;1.10;;;25.70;92.40;;;;;;5008064;28;20192;-67
2022/09/24 12:42:53;;;;;;;1.95;0.75;;;25.70;92.90;;;;;;5005145;28;20694;-65
2022/09/24 12:45:23;;;;;;;4.18;1.20;;;25.60;92.30;;;;;;5017368;28;20184;-67
2022/09/24 12:47:55;;;;;;;4.90;0.90;;;25.70;93.40;;;;;;5013226;28;20189;-66
2022/09/24 12:50:33;;;;;;;5.18;1.17;;;25.60;93.40;;;;;;4989732;28;20211;-67
2022/09/24 12:53:00;;;;;;;2.55;0.82;;;25.50;93.30;;;;;;5006271;28;20192;-67
2022/09/24 12:55:34;;;;;;;2.63;1.25;;;25.50;93.20;;;;;;5000794;28;20182;-63
2022/09/24 12:58:06;;;;;;;3.47;1.17;;;25.60;93.60;;;;;;5009642;28;20192;-66
2022/09/24 13:00:46;;;;;;;2.50;1.00;;;25.50;94.00;;;;;;5005229;28;20251;-67
2022/09/24 13:03:37;;;;;;;2.15;0.82;;;25.50;94.10;;;;;;5004853;28;20303;-67
2022/09/24 13:06:34;;;;;;;4.25;1.10;;;25.50;94.00;;;;;;5003184;28;20194;-67
2022/09/24 13:09:21;;;;;;;2.55;1.02;;;25.50;94.40;;;;;;4994058;28;20276;-67
2022/09/24 13:11:47;;;;;;;2.90;0.90;;;25.40;94.40;;;;;;4987702;28;20192;-67
2022/09/24 13:14:14;;;;;;;1.95;1.10;;;25.40;94.40;;;;;;5004371;28;20215;-67
2022/09/24 13:16:47;;;;;;;1.25;1.00;;;25.40;94.00;;;;;;5013137;28;20188;-67
2022/09/24 13:19:43;;;;;;;6.47;1.10;;;25.40;93.80;;;;;;5002101;28;20196;-66
2022/09/24 13:22:26;;;;;;;3.47;0.95;;;25.30;93.50;;;;;;4975423;28;20698;-65
2022/09/24 13:25:08;;;;;;;5.25;1.25;;;25.30;93.80;;;;;;5009470;28;20204;-66
2022/09/24 13:27:41;;;;;;;3.72;1.30;;;25.40;94.30;;;;;;4990614;28;20186;-67
2022/09/24 13:30:37;;;;;;;5.47;1.27;;;25.40;94.90;;;;;;5011720;28;20197;-67
2022/09/24 13:33:30;;;;;;;5.68;1.38;;;25.30;95.10;;;;;;5010947;28;20203;-66
2022/09/24 13:36:36;;;;;;;8.70;1.20;;;25.40;95.30;;;;;;5006929;28;20184;-64
2022/09/24 13:39:03;;;;;;;3.58;1.17;;;25.30;96.20;;;;;;4969123;28;20678;-67
2022/09/24 13:42:06;;;;;;;3.92;0.93;;;25.20;96.50;;;;;;4966229;28;20650;-67